Time;durP1;ratioP1;P1;durP2;ratioP2;P2;SDS_P1;SDS_P2;PMS_P1;PMS_P2;Temp;Humidity;BMP_temperature;BMP_pressure;BME280_temperature;BME280_humidity;BME280_pressure;Samples;Min_cycle;Max_cycle;Signal;HPM_P1;HPM_P2
2023/10/09 00:01:26;;;;;;;;;;;19.40;99.40;;;;;;5053942;28;19959;-75
2023/10/09 00:03:55;;;;;;;;;;;19.40;99.50;;;;;;5053990;28;20419;-75
2023/10/09 00:06:30;;;;;;;;;;;19.40;99.50;;;;;;5053728;28;19911;-74
2023/10/09 00:08:58;;;;;;;;;;;19.40;99.80;;;;;;5052749;28;20307;-76
2023/10/09 00:11:29;;;;;;;;;;;19.40;99.90;;;;;;5053141;28;20007;-75
2023/10/09 00:13:57;;;;;;;;;;;19.40;99.70;;;;;;5053689;28;19905;-75
2023/10/09 00:16:40;;;;;;;;;;;19.40;99.60;;;;;;5053573;28;19904;-74
2023/10/09 00:21:41;;;;;;;;;;;19.40;99.30;;;;;;5053363;28;19909;-75
2023/10/09 00:24:13;;;;;;;;;;;19.50;99.20;;;;;;5053567;28;19908;-75
2023/10/09 00:26:45;;;;;;;;;;;19.50;99.20;;;;;;5053609;28;19908;-75
2023/10/09 00:29:23;;;;;;;;;;;19.60;99.00;;;;;;5053553;28;19909;-75
2023/10/09 00:32:13;;;;;;;;;;;19.60;98.60;;;;;;5053539;28;19911;-75
2023/10/09 00:34:42;;;;;;;;;;;19.60;98.20;;;;;;5053462;28;20275;-76
2023/10/09 00:37:16;;;;;;;;;;;19.70;97.70;;;;;;5053608;28;20442;-76
2023/10/09 00:39:45;;;;;;;;;;;19.70;97.30;;;;;;5052966;28;20367;-75
2023/10/09 00:42:27;;;;;;;;;;;19.70;96.90;;;;;;5053119;28;19909;-76
2023/10/09 00:44:53;;;;;;;;;;;19.70;96.70;;;;;;5053033;28;19948;-74
2023/10/09 00:47:33;;;;;;;;;;;19.70;96.50;;;;;;5053362;28;19908;-76
2023/10/09 00:52:50;;;;;;;;;;;19.70;96.20;;;;;;5053126;28;19911;-75
2023/10/09 00:55:21;;;;;;;;;;;19.70;96.10;;;;;;5058876;28;19905;-76
2023/10/09 00:57:57;;;;;;;;;;;19.70;95.90;;;;;;5058581;28;19919;-75
2023/10/09 01:00:32;;;;;;;;;;;19.70;95.50;;;;;;5057090;28;19916;-75
2023/10/09 01:03:18;;;;;;;;;;;19.70;95.40;;;;;;5055836;28;19908;-74
2023/10/09 01:05:56;;;;;;;;;;;19.70;95.30;;;;;;5058879;28;19970;-75
2023/10/09 01:11:09;;;;;;;;;;;19.70;95.00;;;;;;5059716;28;19905;-75
2023/10/09 01:13:40;;;;;;;;;;;19.70;94.70;;;;;;5059365;28;19904;-76
2023/10/09 01:16:06;;;;;;;;;;;19.70;94.40;;;;;;5059763;28;19911;-75
2023/10/09 01:18:36;;;;;;;;;;;19.70;94.30;;;;;;5057994;28;20292;-74
2023/10/09 01:21:02;;;;;;;;;;;19.70;94.20;;;;;;5059268;28;19920;-75
2023/10/09 01:23:29;;;;;;;;;;;19.70;94.30;;;;;;5059585;28;19909;-77
2023/10/09 01:25:55;;;;;;;;;;;19.70;94.10;;;;;;5059630;28;19904;-75
2023/10/09 01:28:21;;;;;;;;;;;19.70;93.90;;;;;;5059237;28;19905;-76
2023/10/09 01:30:47;;;;;;;;;;;19.70;93.80;;;;;;5059336;28;19904;-75
2023/10/09 01:33:24;;;;;;;;;;;19.70;93.60;;;;;;5059534;28;19904;-75
2023/10/09 01:35:56;;;;;;;;;;;19.70;93.60;;;;;;5058949;28;19908;-76
2023/10/09 01:38:40;;;;;;;;;;;19.70;93.40;;;;;;5059193;28;19948;-75
2023/10/09 01:41:09;;;;;;;;;;;19.70;93.40;;;;;;5059042;28;19916;-75
2023/10/09 01:43:35;;;;;;;;;;;19.70;93.40;;;;;;5058843;28;20356;-75
2023/10/09 01:46:05;;;;;;;;;;;19.70;93.50;;;;;;5058969;28;20366;-76
2023/10/09 01:48:33;;;;;;;;;;;19.70;93.60;;;;;;5059083;28;19917;-75
2023/10/09 01:51:00;;;;;;;;;;;19.60;93.80;;;;;;5059209;28;20011;-76
2023/10/09 01:53:29;;;;;;;;;;;19.70;94.80;;;;;;5057984;28;19904;-74
2023/10/09 01:55:55;;;;;;;;;;;19.30;82.20;;;;;;5059040;28;19905;-76
2023/10/09 02:00:54;;;;;;;;;;;19.50;82.80;;;;;;5058677;28;20405;-75
2023/10/09 02:03:23;;;;;;;;;;;19.50;83.00;;;;;;5059208;28;19904;-75
2023/10/09 02:05:53;;;;;;;;;;;19.50;82.80;;;;;;5056480;28;19927;-75
2023/10/09 02:08:26;;;;;;;;;;;19.50;82.90;;;;;;5055900;28;19955;-74
2023/10/09 02:10:55;;;;;;;;;;;19.40;82.40;;;;;;5056011;28;20350;-75
2023/10/09 02:13:29;;;;;;;;;;;19.40;82.40;;;;;;5055702;28;19905;-75
2023/10/09 02:15:58;;;;;;;;;;;19.50;82.00;;;;;;5055785;28;19905;-75
2023/10/09 02:18:28;;;;;;;;;;;19.40;81.70;;;;;;5055587;28;20279;-75
2023/10/09 02:26:26;;;;;;;;;;;19.40;81.30;;;;;;5046493;28;19900;-75
2023/10/09 02:29:04;;;;;;;;;;;19.40;81.40;;;;;;5055677;28;20287;-75
2023/10/09 02:31:51;;;;;;;;;;;19.40;81.50;;;;;;5055533;28;19904;-75
2023/10/09 02:34:23;;;;;;;;;;;19.40;81.70;;;;;;5055237;28;19900;-75
2023/10/09 02:36:49;;;;;;;;;;;19.40;81.40;;;;;;5053937;28;20375;-75
2023/10/09 02:39:25;;;;;;;;;;;19.40;81.10;;;;;;5055464;28;19912;-75
2023/10/09 02:42:00;;;;;;;;;;;19.40;81.00;;;;;;5055272;28;19913;-75
2023/10/09 02:44:26;;;;;;;;;;;19.40;81.20;;;;;;5055448;28;19904;-75
2023/10/09 02:46:57;;;;;;;;;;;19.30;80.70;;;;;;5055011;28;19971;-75
2023/10/09 02:49:24;;;;;;;;;;;19.30;80.60;;;;;;5054900;28;19954;-75
2023/10/09 02:51:53;;;;;;;;;;;19.30;80.60;;;;;;5054722;28;19912;-74
2023/10/09 02:54:25;;;;;;;;;;;19.30;80.30;;;;;;5054704;28;19909;-76
2023/10/09 02:57:28;;;;;;;;;;;19.30;80.60;;;;;;5054804;28;20280;-74
2023/10/09 02:59:44;;;;;;;;;;;19.30;80.30;;;;;;5051688;28;19908;-76
2023/10/09 03:02:10;;;;;;;;;;;19.30;80.60;;;;;;5054802;28;19908;-75
2023/10/09 03:04:38;;;;;;;;;;;19.30;80.20;;;;;;5053694;28;19971;-74
2023/10/09 03:07:04;;;;;;;;;;;19.30;80.50;;;;;;5054726;28;19932;-75
2023/10/09 03:09:31;;;;;;;;;;;19.30;80.30;;;;;;5054445;28;19936;-75
2023/10/09 03:12:03;;;;;;;;;;;19.30;80.50;;;;;;5054646;28;19982;-75
2023/10/09 03:14:35;;;;;;;;;;;19.30;80.50;;;;;;5053326;28;19904;-75
2023/10/09 03:17:01;;;;;;;;;;;19.30;80.50;;;;;;5054382;28;20249;-74
2023/10/09 03:19:28;;;;;;;;;;;19.30;80.50;;;;;;5054301;28;19913;-75
2023/10/09 03:21:54;;;;;;;;;;;19.30;80.60;;;;;;5054406;28;19955;-75
2023/10/09 03:24:22;;;;;;;;;;;19.30;80.40;;;;;;5054327;28;19905;-75
2023/10/09 03:26:49;;;;;;;;;;;19.30;80.10;;;;;;5054095;28;20318;-76
2023/10/09 03:29:14;;;;;;;;;;;19.30;80.10;;;;;;5053086;28;19940;-76
2023/10/09 03:31:42;;;;;;;;;;;19.30;80.00;;;;;;5054444;28;19912;-75
2023/10/09 03:34:10;;;;;;;;;;;19.20;79.60;;;;;;5054217;28;20331;-75
2023/10/09 03:36:39;;;;;;;;;;;19.20;79.80;;;;;;5054193;28;19912;-75
2023/10/09 03:39:20;;;;;;;;;;;19.20;79.90;;;;;;5052948;28;19905;-75
2023/10/09 03:41:50;;;;;;;;;;;19.20;79.90;;;;;;5054322;28;19912;-76
2023/10/09 03:44:18;;;;;;;;;;;19.10;79.70;;;;;;5053827;28;19904;-75
2023/10/09 03:46:46;;;;;;;;;;;19.10;79.90;;;;;;5053606;28;19905;-76
2023/10/09 03:49:13;;;;;;;;;;;19.10;79.40;;;;;;5053798;28;19916;-75
2023/10/09 03:51:42;;;;;;;;;;;19.10;79.80;;;;;;5053909;28;19905;-75
2023/10/09 03:54:07;;;;;;;;;;;19.10;79.80;;;;;;5053913;28;19905;-75
2023/10/09 03:56:33;;;;;;;;;;;19.10;79.50;;;;;;5053803;28;19974;-76
2023/10/09 03:59:01;;;;;;;;;;;19.10;79.60;;;;;;5052262;28;19908;-75
2023/10/09 04:01:37;;;;;;;;;;;19.00;79.70;;;;;;5040193;28;19917;-75
2023/10/09 04:04:04;;;;;;;;;;;19.10;79.80;;;;;;5033826;28;19959;-75
2023/10/09 04:06:34;;;;;;;;;;;19.00;79.80;;;;;;5033842;28;19911;-75
2023/10/09 04:09:13;;;;;;;;;;;19.00;79.70;;;;;;5033520;28;19905;-74
2023/10/09 04:11:42;;;;;;;;;;;19.00;79.70;;;;;;5033505;28;19912;-76
2023/10/09 04:14:25;;;;;;;;;;;19.00;79.70;;;;;;5033606;28;19916;-75
2023/10/09 04:16:51;;;;;;;;;;;19.00;79.80;;;;;;5033499;28;20420;-74
2023/10/09 04:19:21;;;;;;;;;;;18.90;79.90;;;;;;5032272;28;19941;-76
2023/10/09 04:21:48;;;;;;;;;;;18.90;80.10;;;;;;5033170;28;19909;-79
2023/10/09 04:26:44;;;;;;;;;;;18.90;80.00;;;;;;5033428;28;20003;-76
2023/10/09 04:29:10;;;;;;;;;;;18.90;80.00;;;;;;5033020;28;19940;-75
2023/10/09 04:31:37;;;;;;;;;;;18.90;80.20;;;;;;5040393;28;20418;-76
2023/10/09 04:34:22;;;;;;;;;;;18.90;80.20;;;;;;5085586;28;19966;-75
2023/10/09 04:39:37;;;;;;;;;;;18.80;80.20;;;;;;5042052;28;19912;-75
2023/10/09 04:47:57;;;;;;;;;;;18.80;80.80;;;;;;5052462;28;20246;-76
2023/10/09 04:52:55;;;;;;;;;;;18.70;81.00;;;;;;5052758;28;19911;-75
2023/10/09 04:55:24;;;;;;;;;;;18.70;81.00;;;;;;5053031;28;19999;-75
2023/10/09 04:58:09;;;;;;;;;;;18.70;80.90;;;;;;5052982;28;19940;-75
2023/10/09 05:03:25;;;;;;;;;;;18.70;81.10;;;;;;5049850;28;19939;-75
2023/10/09 05:05:58;;;;;;;;;;;18.70;81.00;;;;;;5052676;28;19905;-76
2023/10/09 05:16:07;;;;;;;;;;;18.70;81.60;;;;;;5053157;28;19991;-76
2023/10/09 05:18:38;;;;;;;;;;;18.70;81.10;;;;;;5052987;28;19915;-75
2023/10/09 05:23:48;;;;;;;;;;;18.60;81.20;;;;;;5053158;28;20275;-75
2023/10/09 05:29:18;;;;;;;;;;;18.60;81.50;;;;;;5052658;28;19998;-75
2023/10/09 05:31:55;;;;;;;;;;;18.60;81.70;;;;;;5051311;28;19904;-75
2023/10/09 05:34:21;;;;;;;;;;;18.60;81.80;;;;;;5049883;28;19940;-75
2023/10/09 05:36:47;;;;;;;;;;;18.60;81.70;;;;;;5052340;28;19905;-76
2023/10/09 05:39:40;;;;;;;;;;;18.60;81.90;;;;;;5052369;28;20440;-75
2023/10/09 05:42:16;;;;;;;;;;;18.60;82.10;;;;;;5055443;28;19932;-76
2023/10/09 05:45:35;;;;;;;;;;;18.60;82.20;;;;;;5056124;28;19905;-75
2023/10/09 06:02:44;;;;;;;;;;;18.60;83.20;;;;;;5047865;28;19924;-76
2023/10/09 06:04:49;;;;;;;;;;;18.60;83.40;;;;;;5054771;28;19909;-75
2023/10/09 06:06:44;;;;;;;;;;;18.60;83.30;;;;;;5048407;28;19908;-75
2023/10/09 06:11:38;;;;;;;;;;;18.60;83.70;;;;;;5055948;28;20361;-75
2023/10/09 06:14:04;;;;;;;;;;;18.70;83.90;;;;;;5036686;28;19939;-75
2023/10/09 06:19:08;;;;;;;;;;;18.70;84.00;;;;;;5035810;28;19905;-75
2023/10/09 06:22:09;;;;;;;;;;;18.70;84.10;;;;;;5034484;28;20380;-75
2023/10/09 06:24:41;;;;;;;;;;;18.70;84.30;;;;;;5035450;28;19912;-76
2023/10/09 06:27:24;;;;;;;;;;;18.70;84.40;;;;;;5035728;28;19996;-75
2023/10/09 06:34:56;;;;;;;;;;;18.70;85.50;;;;;;5035837;28;20311;-75
2023/10/09 06:47:53;;;;;;;;;;;18.80;85.80;;;;;;5053889;28;19916;-77
2023/10/09 06:52:57;;;;;;;;;;;18.90;85.70;;;;;;5054262;28;20299;-75
2023/10/09 06:55:33;;;;;;;;;;;18.90;85.50;;;;;;5054652;28;20280;-76
2023/10/09 06:58:01;;;;;;;;;;;19.00;85.50;;;;;;5054345;28;20391;-76
2023/10/09 07:03:33;;;;;;;;;;;19.00;85.50;;;;;;5032428;28;20000;-76
2023/10/09 07:06:09;;;;;;;;;;;19.00;85.10;;;;;;5032479;28;20003;-76
2023/10/09 07:08:38;;;;;;;;;;;19.10;85.00;;;;;;5043971;28;19963;-75
2023/10/09 07:11:22;;;;;;;;;;;19.10;84.90;;;;;;5054148;28;19912;-75
2023/10/09 07:13:54;;;;;;;;;;;19.20;84.90;;;;;;5054221;28;20352;-76
2023/10/09 07:16:38;;;;;;;;;;;19.20;84.70;;;;;;5054139;28;19905;-75
2023/10/09 07:19:09;;;;;;;;;;;19.20;84.60;;;;;;5054183;28;19905;-75
2023/10/09 07:21:39;;;;;;;;;;;19.20;84.40;;;;;;5054626;28;20026;-75
2023/10/09 07:24:14;;;;;;;;;;;19.30;84.40;;;;;;5054639;28;19905;-75
2023/10/09 07:26:47;;;;;;;;;;;19.30;84.30;;;;;;5054563;28;19905;-75
2023/10/09 07:29:16;;;;;;;;;;;19.40;84.10;;;;;;5054084;28;19912;-76
2023/10/09 07:31:56;;;;;;;;;;;19.40;83.80;;;;;;5053840;28;19974;-75
2023/10/09 07:34:43;;;;;;;;;;;19.50;83.70;;;;;;5054381;28;19904;-75
2023/10/09 07:37:19;;;;;;;;;;;19.50;83.50;;;;;;5054750;28;20361;-75
2023/10/09 07:39:49;;;;;;;;;;;19.60;83.50;;;;;;5053016;28;20007;-75
2023/10/09 07:42:19;;;;;;;;;;;19.60;83.40;;;;;;5053230;28;19913;-76
2023/10/09 07:44:52;;;;;;;;;;;19.60;83.10;;;;;;5054000;28;19909;-75
2023/10/09 07:47:45;;;;;;;;;;;19.60;83.30;;;;;;5052212;28;19965;-76
2023/10/09 07:50:11;;;;;;;;;;;19.70;83.00;;;;;;5052145;28;19904;-75
2023/10/09 07:52:43;;;;;;;;;;;19.70;82.90;;;;;;5052068;28;19950;-76
2023/10/09 07:55:25;;;;;;;;;;;19.80;82.50;;;;;;5052383;28;19909;-76
2023/10/09 07:57:52;;;;;;;;;;;19.80;82.40;;;;;;5052707;28;20378;-75
2023/10/09 08:03:02;;;;;;;;;;;19.90;82.40;;;;;;5053483;28;19947;-76
2023/10/09 08:05:33;;;;;;;;;;;19.90;82.30;;;;;;5054072;28;20352;-75
2023/10/09 08:16:38;;;;;;;;;;;20.00;82.10;;;;;;5041530;28;19911;-75
2023/10/09 08:19:32;;;;;;;;;;;20.10;82.10;;;;;;5053781;28;19948;-75
2023/10/09 08:24:41;;;;;;;;;;;20.30;82.00;;;;;;5053579;28;20343;-76
2023/10/09 08:30:11;;;;;;;;;;;20.30;81.60;;;;;;5053615;28;19911;-75
2023/10/09 08:32:40;;;;;;;;;;;20.40;81.60;;;;;;5053537;28;19931;-75
2023/10/09 08:35:29;;;;;;;;;;;20.40;81.60;;;;;;5053494;28;19904;-75
2023/10/09 08:37:52;;;;;;;;;;;20.50;81.40;;;;;;5053222;28;20348;-75
2023/10/09 08:40:21;;;;;;;;;;;20.50;81.20;;;;;;5053119;28;19960;-75
2023/10/09 08:42:52;;;;;;;;;;;20.60;81.40;;;;;;5053062;28;19936;-76
2023/10/09 08:45:27;;;;;;;;;;;20.60;81.50;;;;;;5053176;28;19956;-76
2023/10/09 08:47:56;;;;;;;;;;;20.60;81.30;;;;;;5052778;28;19969;-75
2023/10/09 08:50:22;;;;;;;;;;;20.70;81.40;;;;;;5053126;28;20426;-75
2023/10/09 08:52:49;;;;;;;;;;;20.70;81.30;;;;;;5053272;28;19948;-75
2023/10/09 08:55:17;;;;;;;;;;;20.80;81.20;;;;;;5052975;28;20029;-75
2023/10/09 08:57:44;;;;;;;;;;;20.90;81.20;;;;;;5052652;28;20364;-75
2023/10/09 09:00:21;;;;;;;;;;;20.90;81.00;;;;;;5052983;28;20441;-74
2023/10/09 09:02:47;;;;;;;;;;;21.00;81.00;;;;;;5051796;28;19905;-74
2023/10/09 09:05:23;;;;;;;;;;;21.00;81.00;;;;;;5052942;28;19911;-74
2023/10/09 09:07:49;;;;;;;;;;;21.00;81.20;;;;;;5052654;28;19909;-76
2023/10/09 09:10:20;;;;;;;;;;;21.10;80.90;;;;;;5052700;28;19912;-74
2023/10/09 09:12:46;;;;;;;;;;;21.10;80.80;;;;;;5051891;28;19909;-75
2023/10/09 09:15:19;;;;;;;;;;;21.10;80.70;;;;;;5054501;28;19905;-74
2023/10/09 09:17:45;;;;;;;;;;;21.20;80.60;;;;;;5054111;28;20253;-75
2023/10/09 09:20:23;;;;;;;;;;;21.20;80.70;;;;;;5053765;28;19919;-75
2023/10/09 09:22:53;;;;;;;;;;;21.30;80.90;;;;;;5055326;28;20382;-75
2023/10/09 09:25:24;;;;;;;;;;;21.30;81.00;;;;;;5055200;28;19959;-75
2023/10/09 09:28:09;;;;;;;;;;;21.30;81.10;;;;;;5055046;28;20348;-74
2023/10/09 09:30:35;;;;;;;;;;;21.40;81.00;;;;;;5055068;28;20291;-75
2023/10/09 09:36:06;;;;;;;;;;;21.50;81.60;;;;;;5056938;28;20436;-74
2023/10/09 09:38:41;;;;;;;;;;;21.50;82.50;;;;;;5056270;28;19915;-74
2023/10/09 09:41:08;;;;;;;;;;;21.60;84.60;;;;;;5056463;28;20014;-75
2023/10/09 09:43:35;;;;;;;;;;;21.70;83.90;;;;;;5056592;28;19913;-75
2023/10/09 09:46:03;;;;;;;;;;;21.70;83.50;;;;;;5054135;28;19904;-75
2023/10/09 09:48:32;;;;;;;;;;;21.80;84.00;;;;;;5056354;28;19917;-75
2023/10/09 09:50:57;;;;;;;;;;;21.80;83.90;;;;;;5056317;28;20319;-76
2023/10/09 09:53:23;;;;;;;;;;;21.90;84.00;;;;;;5056238;28;20015;-73
2023/10/09 09:55:59;;;;;;;;;;;22.00;84.70;;;;;;5056075;28;19904;-76
2023/10/09 09:58:27;;;;;;;;;;;22.00;85.30;;;;;;5056098;28;19991;-75
2023/10/09 10:00:54;;;;;;;;;;;;;;;;;;5052543;28;20331;-75
2023/10/09 10:03:22;;;;;;;;;;;22.20;85.10;;;;;;5054224;28;19905;-75
2023/10/09 10:05:49;;;;;;;;;;;22.30;87.20;;;;;;5055290;28;19927;-75
2023/10/09 10:08:19;;;;;;;;;;;22.30;86.80;;;;;;5055415;28;19905;-76
2023/10/09 10:11:28;;;;;;;;;;;22.40;87.00;;;;;;5055146;28;19908;-75
2023/10/09 10:13:40;;;;;;;;;;;22.40;87.00;;;;;;5052169;28;19916;-75
2023/10/09 10:16:13;;;;;;;;;;;22.40;87.50;;;;;;5055062;28;19905;-75
2023/10/09 10:19:00;;;;;;;;;;;22.40;87.30;;;;;;5055132;28;20374;-75
2023/10/09 10:24:05;;;;;;;;;;;22.40;88.00;;;;;;5055112;28;19962;-74
2023/10/09 10:26:33;;;;;;;;;;;22.40;87.70;;;;;;5054281;28;19904;-74
2023/10/09 10:29:26;;;;;;;;;;;22.50;89.90;;;;;;5055108;28;19975;-75
2023/10/09 10:31:52;;;;;;;;;;;22.50;91.10;;;;;;5055093;28;19947;-75
2023/10/09 10:34:23;;;;;;;;;;;22.50;91.70;;;;;;5054687;28;19948;-76
2023/10/09 10:36:58;;;;;;;;;;;22.50;91.40;;;;;;5052499;28;19905;-76
2023/10/09 10:39:43;;;;;;;;;;;22.60;92.40;;;;;;5054099;28;19919;-75
2023/10/09 10:42:09;;;;;;;;;;;22.60;92.40;;;;;;5053916;28;19909;-75
2023/10/09 10:44:38;;;;;;;;;;;22.70;91.80;;;;;;5054177;28;19915;-75
2023/10/09 10:47:24;;;;;;;;;;;22.70;91.70;;;;;;5053739;28;19905;-75
2023/10/09 10:49:50;;;;;;;;;;;22.70;91.70;;;;;;5054021;28;19931;-74
2023/10/09 10:52:22;;;;;;;;;;;22.70;91.90;;;;;;5054459;28;19999;-75
2023/10/09 10:55:18;;;;;;;;;;;22.80;91.90;;;;;;5052350;28;19905;-76
2023/10/09 10:57:53;;;;;;;;;;;22.80;91.70;;;;;;5054144;28;19912;-75
2023/10/09 11:03:18;;;;;;;;;;;22.90;92.10;;;;;;5054667;28;19967;-75
2023/10/09 11:05:50;;;;;;;;;;;22.90;92.00;;;;;;5054862;28;19911;-75
2023/10/09 11:08:21;;;;;;;;;;;23.00;92.10;;;;;;5054821;28;19912;-75
2023/10/09 11:10:50;;;;;;;;;;;23.00;92.20;;;;;;5054681;28;20274;-76
2023/10/09 11:13:30;;;;;;;;;;;23.00;92.40;;;;;;5054261;28;20283;-75
2023/10/09 11:16:14;;;;;;;;;;;23.10;92.50;;;;;;5054354;28;19927;-75
2023/10/09 11:18:45;;;;;;;;;;;23.20;92.10;;;;;;5054504;28;20356;-75
2023/10/09 11:23:53;;;;;;;;;;;23.20;91.40;;;;;;5054800;28;19912;-75
2023/10/09 11:26:28;;;;;;;;;;;23.30;91.10;;;;;;5054744;28;19908;-75
2023/10/09 11:29:23;;;;;;;;;;;23.30;91.30;;;;;;5054572;28;19908;-75
2023/10/09 11:32:17;;;;;;;;;;;23.40;91.30;;;;;;5054498;28;20352;-75
2023/10/09 11:34:51;;;;;;;;;;;23.40;91.50;;;;;;5054458;28;19912;-75
2023/10/09 11:37:32;;;;;;;;;;;23.50;91.20;;;;;;5054406;28;20279;-75
2023/10/09 11:39:59;;;;;;;;;;;23.50;91.50;;;;;;5053099;28;19908;-75
2023/10/09 11:45:19;;;;;;;;;;;23.60;91.40;;;;;;5054286;28;19915;-75
2023/10/09 11:47:57;;;;;;;;;;;23.60;91.30;;;;;;5050373;28;19917;-75
2023/10/09 11:50:43;;;;;;;;;;;23.70;91.30;;;;;;5042506;28;19905;-75
2023/10/09 11:53:09;;;;;;;;;;;23.60;91.10;;;;;;5052747;28;19959;-75
2023/10/09 11:55:35;;;;;;;;;;;23.60;91.00;;;;;;5053757;28;19908;-76
2023/10/09 11:58:02;;;;;;;;;;;23.60;91.30;;;;;;5049173;28;19992;-75
2023/10/09 12:00:31;;;;;;;;;;;23.70;91.10;;;;;;5050863;28;19913;-73
2023/10/09 12:02:56;;;;;;;;;;;23.70;90.90;;;;;;5053921;28;19912;-74
2023/10/09 12:05:23;;;;;;;;;;;23.70;90.80;;;;;;5053772;28;19912;-74
2023/10/09 12:07:57;;;;;;;;;;;23.70;90.70;;;;;;5053737;28;19911;-75
2023/10/09 12:10:26;;;;;;;;;;;23.80;90.90;;;;;;5052481;28;20356;-74
2023/10/09 12:12:52;;;;;;;;;;;23.80;90.70;;;;;;5053487;28;20380;-75
2023/10/09 12:15:19;;;;;;;;;;;23.90;90.60;;;;;;5053584;28;20268;-75
2023/10/09 12:17:46;;;;;;;;;;;23.90;90.50;;;;;;5053828;28;20339;-75
2023/10/09 12:20:14;;;;;;;;;;;23.90;89.80;;;;;;5054021;28;19913;-74
2023/10/09 12:22:40;;;;;;;;;;;24.00;90.00;;;;;;5053209;28;19987;-75
2023/10/09 12:25:09;;;;;;;;;;;24.00;90.00;;;;;;5053503;28;19904;-75
2023/10/09 12:27:34;;;;;;;;;;;24.00;90.10;;;;;;5053591;28;20344;-74
2023/10/09 12:30:03;;;;;;;;;;;24.00;90.20;;;;;;5053391;28;19944;-75
2023/10/09 12:32:28;;;;;;;;;;;24.10;90.10;;;;;;5052153;28;20323;-75
2023/10/09 12:34:56;;;;;;;;;;;24.10;89.20;;;;;;5053439;28;20008;-75
2023/10/09 12:37:21;;;;;;;;;;;24.10;88.90;;;;;;5053554;28;19905;-75
2023/10/09 12:39:47;;;;;;;;;;;24.10;88.00;;;;;;5053022;28;19912;-75
2023/10/09 12:42:13;;;;;;;;;;;24.10;88.60;;;;;;5053305;28;19908;-75
2023/10/09 12:44:42;;;;;;;;;;;24.20;89.00;;;;;;5053366;28;19909;-75
2023/10/09 12:47:11;;;;;;;;;;;24.10;88.60;;;;;;5053173;28;19913;-74
2023/10/09 12:49:39;;;;;;;;;;;24.20;88.50;;;;;;5052961;28;19953;-74
2023/10/09 12:52:15;;;;;;;;;;;24.20;88.80;;;;;;5053019;28;19950;-75
2023/10/09 12:54:41;;;;;;;;;;;24.20;88.30;;;;;;5053184;28;19908;-74
2023/10/09 12:57:13;;;;;;;;;;;24.20;88.40;;;;;;5053208;28;19905;-75
2023/10/09 12:59:48;;;;;;;;;;;24.20;88.50;;;;;;5053039;28;20395;-74
2023/10/09 13:02:35;;;;;;;;;;;24.30;88.90;;;;;;5043826;28;19909;-74
2023/10/09 13:05:03;;;;;;;;;;;24.20;88.50;;;;;;5040899;28;19905;-74
2023/10/09 13:07:29;;;;;;;;;;;24.20;88.40;;;;;;5043917;28;19911;-75
2023/10/09 13:10:12;;;;;;;;;;;24.20;88.90;;;;;;5042005;28;19911;-74
2023/10/09 13:12:43;;;;;;;;;;;24.30;89.40;;;;;;5043370;28;20333;-75
2023/10/09 13:15:09;;;;;;;;;;;24.20;88.90;;;;;;5033114;28;19940;-74
2023/10/09 13:17:38;;;;;;;;;;;24.30;88.70;;;;;;5032357;28;19905;-74
2023/10/09 13:20:13;;;;;;;;;;;24.30;88.70;;;;;;5032420;28;19913;-75
2023/10/09 13:22:40;;;;;;;;;;;24.30;88.40;;;;;;5032671;28;19911;-74
2023/10/09 13:25:07;;;;;;;;;;;24.30;88.30;;;;;;5032831;28;20000;-74
2023/10/09 13:27:34;;;;;;;;;;;24.30;87.40;;;;;;5035689;28;19924;-75
2023/10/09 13:30:05;;;;;;;;;;;24.30;87.60;;;;;;5049619;28;19909;-75
2023/10/09 13:32:35;;;;;;;;;;;24.30;87.60;;;;;;5041464;28;19912;-74
2023/10/09 13:35:03;;;;;;;;;;;24.30;87.80;;;;;;5041824;28;19912;-72
2023/10/09 13:37:30;;;;;;;;;;;24.30;87.90;;;;;;5041820;28;19905;-75
2023/10/09 13:39:57;;;;;;;;;;;24.30;87.70;;;;;;5040827;28;19917;-72
2023/10/09 13:42:25;;;;;;;;;;;24.30;87.70;;;;;;5049624;28;19905;-72
2023/10/09 13:44:53;;;;;;;;;;;24.30;87.70;;;;;;5052237;28;19936;-73
2023/10/09 13:47:20;;;;;;;;;;;24.30;88.80;;;;;;5052264;28;19935;-73
2023/10/09 13:49:50;;;;;;;;;;;24.30;89.10;;;;;;5052295;28;19912;-74
2023/10/09 13:52:18;;;;;;;;;;;24.30;88.40;;;;;;5049653;28;20375;-73
2023/10/09 13:54:47;;;;;;;;;;;24.30;88.50;;;;;;5048027;28;19999;-74
2023/10/09 13:57:14;;;;;;;;;;;24.30;89.10;;;;;;5050360;28;19905;-75
2023/10/09 13:59:49;;;;;;;;;;;24.40;88.20;;;;;;5051924;28;20395;-74
2023/10/09 14:02:17;;;;;;;;;;;24.30;88.40;;;;;;5053758;28;20396;-75
2023/10/09 14:04:43;;;;;;;;;;;24.30;88.30;;;;;;5055583;28;19911;-75
2023/10/09 14:07:09;;;;;;;;;;;24.30;88.80;;;;;;5055609;28;19912;-74
2023/10/09 14:09:38;;;;;;;;;;;24.30;88.60;;;;;;5055681;28;19956;-74
2023/10/09 14:12:07;;;;;;;;;;;24.30;88.50;;;;;;5055512;28;20609;-74
2023/10/09 14:14:34;;;;;;;;;;;24.30;88.60;;;;;;5055669;28;19916;-74
2023/10/09 14:17:00;;;;;;;;;;;24.30;88.70;;;;;;5055851;28;19909;-74
2023/10/09 14:19:25;;;;;;;;;;;24.30;88.60;;;;;;5052813;28;19962;-74
2023/10/09 14:21:51;;;;;;;;;;;24.40;89.30;;;;;;5052978;28;20288;-75
2023/10/09 14:24:17;;;;;;;;;;;24.40;88.80;;;;;;5053426;28;20357;-74
2023/10/09 14:26:46;;;;;;;;;;;24.30;89.40;;;;;;5055082;28;19904;-74
2023/10/09 14:29:21;;;;;;;;;;;24.40;88.80;;;;;;5055365;28;19951;-74
2023/10/09 14:31:59;;;;;;;;;;;24.40;88.90;;;;;;5087697;28;19999;-75
2023/10/09 14:34:32;;;;;;;;;;;24.30;89.30;;;;;;5054695;28;19905;-74
2023/10/09 14:37:00;;;;;;;;;;;24.30;89.90;;;;;;5054690;28;19905;-74
2023/10/09 14:39:26;;;;;;;;;;;24.30;89.60;;;;;;5053996;28;20376;-74
2023/10/09 14:41:54;;;;;;;;;;;24.30;89.70;;;;;;5054386;28;20276;-74
2023/10/09 14:44:20;;;;;;;;;;;24.30;90.10;;;;;;5054645;28;19912;-74
2023/10/09 14:46:45;;;;;;;;;;;24.30;89.90;;;;;;5054498;28;20383;-75
2023/10/09 14:49:14;;;;;;;;;;;24.30;89.70;;;;;;5054088;28;19917;-74
2023/10/09 14:51:40;;;;;;;;;;;24.30;89.80;;;;;;5054201;28;20261;-75
2023/10/09 14:54:07;;;;;;;;;;;24.30;89.90;;;;;;5053763;28;19936;-74
2023/10/09 14:56:36;;;;;;;;;;;24.30;90.00;;;;;;5054649;28;19916;-74
2023/10/09 14:59:02;;;;;;;;;;;24.30;90.10;;;;;;5054166;28;19905;-74
2023/10/09 15:01:29;;;;;;;;;;;24.20;90.20;;;;;;5054638;28;19959;-75
2023/10/09 15:03:57;;;;;;;;;;;24.20;90.40;;;;;;5054495;28;19908;-73
2023/10/09 15:06:24;;;;;;;;;;;24.20;90.30;;;;;;5054929;28;19999;-73
2023/10/09 15:08:49;;;;;;;;;;;24.20;90.40;;;;;;5054681;28;20348;-74
2023/10/09 15:11:15;;;;;;;;;;;;;;;;;;5054712;28;20136;-74
2023/10/09 15:13:41;;;;;;;;;;;24.10;90.30;;;;;;5054039;28;19904;-75
2023/10/09 15:16:06;;;;;;;;;;;24.10;90.40;;;;;;5054709;28;20280;-74
2023/10/09 15:18:33;;;;;;;;;;;24.10;90.60;;;;;;5054582;28;19954;-74
2023/10/09 15:20:59;;;;;;;;;;;24.00;90.50;;;;;;5053497;28;19916;-75
2023/10/09 15:23:25;;;;;;;;;;;24.00;90.50;;;;;;5054392;28;19912;-73
2023/10/09 15:25:51;;;;;;;;;;;24.00;90.60;;;;;;5054549;28;19904;-73
2023/10/09 15:28:19;;;;;;;;;;;24.00;90.70;;;;;;5054833;28;19948;-73
2023/10/09 15:30:47;;;;;;;;;;;24.00;90.80;;;;;;5054510;28;20357;-73
2023/10/09 15:33:19;;;;;;;;;;;24.00;90.90;;;;;;5054607;28;19927;-75
2023/10/09 15:35:49;;;;;;;;;;;24.00;90.90;;;;;;5054338;28;20391;-73
2023/10/09 15:38:15;;;;;;;;;;;24.00;90.80;;;;;;5054250;28;19912;-74
2023/10/09 15:40:43;;;;;;;;;;;23.90;90.80;;;;;;5051843;28;19916;-75
2023/10/09 15:43:12;;;;;;;;;;;23.90;90.80;;;;;;5050720;28;19912;-75
2023/10/09 15:45:41;;;;;;;;;;;23.90;90.90;;;;;;5049650;28;20019;-74
2023/10/09 15:48:06;;;;;;;;;;;23.90;91.00;;;;;;5050217;28;19917;-74
2023/10/09 15:50:34;;;;;;;;;;;23.90;91.00;;;;;;5054138;28;20004;-75
2023/10/09 15:53:01;;;;;;;;;;;23.90;91.10;;;;;;5054140;28;20382;-75
2023/10/09 15:55:26;;;;;;;;;;;23.90;91.50;;;;;;5052588;28;19915;-75
2023/10/09 15:57:54;;;;;;;;;;;23.90;91.40;;;;;;5053514;28;19995;-74
2023/10/09 16:00:21;;;;;;;;;;;23.90;91.30;;;;;;5052952;28;20003;-75
2023/10/09 16:02:52;;;;;;;;;;;23.90;91.50;;;;;;5052477;28;20012;-75
2023/10/09 16:05:19;;;;;;;;;;;23.80;91.80;;;;;;5054102;28;19983;-75
2023/10/09 16:07:44;;;;;;;;;;;23.80;91.60;;;;;;5053894;28;19905;-75
2023/10/09 16:10:10;;;;;;;;;;;23.80;91.80;;;;;;5053894;28;19911;-75
2023/10/09 16:12:37;;;;;;;;;;;23.80;91.90;;;;;;5054158;28;19905;-75
2023/10/09 16:15:04;;;;;;;;;;;23.80;91.90;;;;;;5053976;28;19905;-75
2023/10/09 16:17:31;;;;;;;;;;;23.70;91.80;;;;;;5053454;28;20273;-75
2023/10/09 16:19:56;;;;;;;;;;;23.70;92.00;;;;;;5052055;28;19940;-75
2023/10/09 16:22:24;;;;;;;;;;;23.70;91.90;;;;;;5050610;28;20367;-76
2023/10/09 16:24:50;;;;;;;;;;;23.70;91.90;;;;;;5051404;28;19905;-76
2023/10/09 16:27:19;;;;;;;;;;;23.70;91.90;;;;;;5051165;28;20409;-75
2023/10/09 16:29:44;;;;;;;;;;;23.70;91.90;;;;;;5053350;28;19904;-75
2023/10/09 16:32:11;;;;;;;;;;;23.70;91.80;;;;;;5053075;28;19905;-75
2023/10/09 16:34:38;;;;;;;;;;;23.70;92.00;;;;;;5053238;28;19909;-74
2023/10/09 16:37:06;;;;;;;;;;;23.70;91.90;;;;;;5053591;28;19905;-75